Abbotsford, Wisconsin
Current Conditions -  °F | °C
As of 8:15 PM on Monday 22 Dec 2014 (Local Time) from KMDZ Reporting Station
Light Snow Light Snow  
Wind Chill: -6°   Ceiling: 700
Heat Index:   Visibility: 1.7mi
Dew Point: -1°   Wind: 14mph
Humidity: 95%   Direction: 80°E
Pressure: 29.68"   Gusts: 18mph
Location:  44.95°N, 90.32°W
Report Text: KMDZ 230215Z AUTO 08012G16KT 1 3/4SM -SN OVC007 00/M01 A2968 RMK AO2 T10011008
Loading
Personal Weather Stations






























Interactive Weather Map New forecast layout! Learn more

10-Day Weather Forecast

Advertisements
Track Severe Weather on mobile